« Back
NWS Peachtree City, Ga » Text Product » ATL Terminal Aerodrome Forecast


Printer-friendly Version
Current Version              Previous Versions:   1  2  3  4  5  6  7  8  9  

Terminal Aerodrome Forecast

208
FTUS42 KFFC 300355 AAB
TAFATL
TAF AMD
KATL 300355Z 3004/3106 30005KT P6SM VCSH SCT060 BKN120
     FM301400 28007KT P6SM SCT025
     FM301600 29009KT P6SM SCT045 PROB30 3020/3024 5SM -TSRA
      BKN035CB
     FM310000 24005KT P6SM FEW050 SCT250=

USA.gov is the U.S. government's official web portal to all federal, state and local government web resources and services.